Time;durP1;ratioP1;P1;durP2;ratioP2;P2;SDS_P1;SDS_P2;PMS_P1;PMS_P2;Temp;Humidity;BMP_temperature;BMP_pressure;BME280_temperature;BME280_humidity;BME280_pressure;Samples;Min_cycle;Max_cycle;Signal;HPM_P1;HPM_P2
2021/07/09 00:01:32;;;;;;;10.03;8.50;;;18.00;99.90;;;;;;5081461;28;20453;-70
2021/07/09 00:03:59;;;;;;;13.93;9.07;;;18.30;99.90;;;;;;5082196;28;20474;-71
2021/07/09 00:06:26;;;;;;;14.03;9.40;;;18.40;99.90;;;;;;5083474;28;20577;-69
2021/07/09 00:08:53;;;;;;;15.63;11.20;;;18.40;99.90;;;;;;5088873;28;20518;-71
2021/07/09 00:11:20;;;;;;;14.30;9.10;;;18.30;99.90;;;;;;5083172;28;20895;-69
2021/07/09 00:13:48;;;;;;;19.40;9.63;;;18.30;99.90;;;;;;5084189;28;20982;-72
2021/07/09 00:16:17;;;;;;;11.83;8.53;;;18.40;99.90;;;;;;5077658;28;20489;-68
2021/07/09 00:18:45;;;;;;;12.40;8.50;;;18.40;99.90;;;;;;5079226;28;20527;-69
2021/07/09 00:21:13;;;;;;;16.83;10.03;;;18.30;99.90;;;;;;5081061;28;20541;-69
2021/07/09 00:23:41;;;;;;;17.20;8.97;;;18.30;99.90;;;;;;5082549;28;20541;-69
2021/07/09 00:26:09;;;;;;;15.40;10.93;;;18.40;99.90;;;;;;5085107;28;21113;-69
2021/07/09 00:28:35;;;;;;;10.23;8.27;;;18.40;99.90;;;;;;5084472;28;20529;-68
2021/07/09 00:31:03;;;;;;;13.33;8.53;;;18.30;99.90;;;;;;5078480;28;21049;-70
2021/07/09 00:33:30;;;;;;;20.43;7.37;;;18.20;99.90;;;;;;5087543;28;20537;-68
2021/07/09 00:35:58;;;;;;;11.30;7.83;;;18.00;99.90;;;;;;5082139;28;21066;-68
2021/07/09 00:38:25;;;;;;;10.03;7.83;;;18.10;99.90;;;;;;5089955;28;20532;-69
2021/07/09 00:40:52;;;;;;;14.00;9.23;;;18.00;99.90;;;;;;5083035;28;20485;-69
2021/07/09 00:43:19;;;;;;;19.33;9.47;;;18.20;99.90;;;;;;5081851;28;20548;-70
2021/07/09 00:45:46;;;;;;;13.93;9.57;;;18.20;99.90;;;;;;5086583;28;20521;-69
2021/07/09 00:48:13;;;;;;;16.47;9.93;;;18.30;99.90;;;;;;5078174;28;20469;-70
2021/07/09 00:50:40;;;;;;;14.03;7.80;;;18.10;99.90;;;;;;5077696;28;20450;-71
2021/07/09 00:53:08;;;;;;;13.93;7.77;;;18.00;99.90;;;;;;5080948;28;20578;-71
2021/07/09 00:55:36;;;;;;;13.10;8.87;;;18.10;99.90;;;;;;5076972;28;21019;-70
2021/07/09 00:58:04;;;;;;;16.70;9.43;;;18.10;99.90;;;;;;5074386;28;20542;-72
2021/07/09 01:00:31;;;;;;;13.67;8.97;;;18.10;99.90;;;;;;5079450;28;20460;-69
2021/07/09 01:02:59;;;;;;;12.27;8.67;;;18.20;99.90;;;;;;5079739;28;20548;-69
2021/07/09 01:05:27;;;;;;;20.60;11.53;;;18.30;99.90;;;;;;5077290;28;20569;-69
2021/07/09 01:07:54;;;;;;;13.70;8.80;;;18.30;99.90;;;;;;5081759;28;20524;-69
2021/07/09 01:10:22;;;;;;;14.00;8.57;;;18.30;99.90;;;;;;5079025;28;21045;-70
2021/07/09 01:12:49;;;;;;;14.37;8.30;;;18.30;99.90;;;;;;5076565;28;20466;-70
2021/07/09 01:15:19;;;;;;;12.27;9.20;;;18.40;99.90;;;;;;5082416;28;20544;-69
2021/07/09 01:17:47;;;;;;;16.90;9.50;;;18.30;99.90;;;;;;5078961;28;20879;-70
2021/07/09 01:20:16;;;;;;;14.90;9.57;;;18.30;99.90;;;;;;5078628;28;20564;-69
2021/07/09 01:22:44;;;;;;;15.33;9.93;;;18.40;99.90;;;;;;5078336;28;20549;-70
2021/07/09 01:25:15;;;;;;;16.03;9.77;;;18.30;99.90;;;;;;5076970;28;20459;-69
2021/07/09 01:27:44;;;;;;;13.27;10.50;;;18.30;99.90;;;;;;5079980;28;20535;-69
2021/07/09 01:30:14;;;;;;;15.03;8.73;;;18.30;99.90;;;;;;5088383;28;20897;-69
2021/07/09 01:32:42;;;;;;;16.80;11.27;;;18.20;99.90;;;;;;5090161;28;20486;-70
2021/07/09 01:35:10;;;;;;;17.00;10.77;;;18.20;99.90;;;;;;5091768;28;21075;-68
2021/07/09 01:37:38;;;;;;;18.90;11.63;;;18.20;99.90;;;;;;5092141;28;20525;-70
2021/07/09 01:40:07;;;;;;;14.77;9.40;;;18.30;99.90;;;;;;5077706;28;20493;-69
2021/07/09 01:42:35;;;;;;;18.87;10.83;;;18.20;99.90;;;;;;5089643;28;20499;-70
2021/07/09 01:45:02;;;;;;;13.90;10.13;;;18.30;99.90;;;;;;5091376;28;20557;-68
2021/07/09 01:47:29;;;;;;;14.67;9.30;;;18.20;99.90;;;;;;5088914;28;20557;-68
2021/07/09 01:49:57;;;;;;;13.17;10.03;;;18.20;99.90;;;;;;5087725;28;20548;-70
2021/07/09 01:52:25;;;;;;;16.70;10.27;;;18.30;99.90;;;;;;5086323;28;20454;-70
2021/07/09 01:54:53;;;;;;;15.20;11.37;;;18.30;99.90;;;;;;5084258;28;20471;-69
2021/07/09 01:57:20;;;;;;;13.67;11.30;;;18.30;99.90;;;;;;5090350;28;20462;-69
2021/07/09 01:59:48;;;;;;;16.13;11.47;;;18.20;99.90;;;;;;5090518;28;20442;-73
2021/07/09 02:02:15;;;;;;;16.63;10.77;;;18.20;99.90;;;;;;5090298;28;20536;-69
2021/07/09 02:04:48;;;;;;;18.30;11.10;;;18.30;99.90;;;;;;5084624;28;20486;-71
2021/07/09 02:07:15;;;;;;;18.93;12.40;;;18.30;99.90;;;;;;5091131;28;20505;-69
2021/07/09 02:09:44;;;;;;;17.87;11.00;;;18.30;99.90;;;;;;5089086;28;20477;-70
2021/07/09 02:12:12;;;;;;;14.33;9.87;;;18.40;99.90;;;;;;5073506;28;20489;-69
2021/07/09 02:14:39;;;;;;;13.57;9.97;;;18.30;99.90;;;;;;5090327;28;20603;-69
2021/07/09 02:17:10;;;;;;;14.40;10.10;;;18.40;99.90;;;;;;5088118;28;20481;-69
2021/07/09 02:19:37;;;;;;;12.60;10.10;;;18.30;99.90;;;;;;5086953;28;20763;-71
2021/07/09 02:22:07;;;;;;;13.27;9.00;;;18.30;99.90;;;;;;5085816;28;20532;-69
2021/07/09 02:24:34;;;;;;;18.33;9.80;;;18.20;99.90;;;;;;5089950;28;21060;-69
2021/07/09 02:27:02;;;;;;;21.53;11.50;;;18.30;99.90;;;;;;5081566;28;20572;-68
2021/07/09 02:29:30;;;;;;;15.60;9.20;;;18.20;99.90;;;;;;5084293;28;20473;-68
2021/07/09 02:31:59;;;;;;;17.13;11.53;;;18.30;99.90;;;;;;5083850;28;20489;-70
2021/07/09 02:34:27;;;;;;;13.87;9.93;;;18.20;99.90;;;;;;5088638;28;20540;-70
2021/07/09 02:36:55;;;;;;;22.33;10.97;;;18.10;99.90;;;;;;5086380;28;20466;-68
2021/07/09 02:39:22;;;;;;;16.80;9.70;;;18.00;99.90;;;;;;5088958;28;20473;-68
2021/07/09 02:41:49;;;;;;;14.77;10.97;;;18.10;99.90;;;;;;5087400;28;20454;-69
2021/07/09 02:44:16;;;;;;;17.70;10.37;;;17.90;99.90;;;;;;5076269;28;20481;-69
2021/07/09 02:46:43;;;;;;;11.97;8.83;;;18.10;99.90;;;;;;5079704;28;20569;-69
2021/07/09 02:49:10;;;;;;;15.77;10.00;;;18.00;99.90;;;;;;5085819;28;20544;-69
2021/07/09 02:51:38;;;;;;;14.77;10.13;;;18.10;99.90;;;;;;5083310;28;20462;-70
2021/07/09 02:54:05;;;;;;;16.03;11.13;;;17.90;99.90;;;;;;5085914;28;20446;-72
2021/07/09 03:19:22;;;;;;;15.80;9.93;;;18.10;99.90;;;;;;5407719;22;20582;-68
2021/07/09 03:21:49;;;;;;;17.87;11.30;;;18.20;99.90;;;;;;4991765;28;20464;-71
2021/07/09 03:24:16;;;;;;;16.00;11.30;;;18.20;99.90;;;;;;5006986;28;22230;-72
2021/07/09 03:26:43;;;;;;;16.00;10.97;;;18.10;99.90;;;;;;5004160;28;20501;-72
2021/07/09 03:29:10;;;;;;;21.57;12.97;;;18.20;99.90;;;;;;5001774;28;20557;-72
2021/07/09 03:31:36;;;;;;;21.13;10.77;;;18.20;99.90;;;;;;5038430;22;20498;-66
2021/07/09 03:34:04;;;;;;;15.60;10.90;;;18.30;99.90;;;;;;5058563;28;20473;-68
2021/07/09 03:36:32;;;;;;;21.13;12.50;;;18.30;99.90;;;;;;5061332;28;20477;-68
2021/07/09 03:59:14;;;;;;;17.10;12.40;;;18.30;99.90;;;;;;5031616;28;20927;-68
2021/07/09 04:01:41;;;;;;;19.37;12.27;;;18.40;99.90;;;;;;5049553;28;20491;-67
2021/07/09 04:04:08;;;;;;;18.03;13.97;;;18.50;99.90;;;;;;5043718;28;20495;-68
2021/07/09 04:06:36;;;;;;;24.00;15.50;;;18.50;99.90;;;;;;5042403;28;20544;-68
2021/07/09 04:09:03;;;;;;;18.80;13.27;;;18.50;99.90;;;;;;5037858;28;20604;-68
2021/07/09 04:35:07;;;;;;;19.87;13.37;;;18.40;99.90;;;;;;5039064;28;20414;-68
2021/07/09 04:37:34;;;;;;;17.17;12.53;;;18.40;99.90;;;;;;5044005;28;20490;-68
2021/07/09 04:40:01;;;;;;;22.80;13.13;;;18.40;99.90;;;;;;5046166;28;20458;-68
2021/07/09 04:42:28;;;;;;;23.23;15.50;;;18.50;99.90;;;;;;5030540;28;20487;-67
2021/07/09 04:44:55;;;;;;;20.40;13.00;;;18.50;99.90;;;;;;5035296;28;20576;-68
2021/07/09 04:47:23;;;;;;;30.37;15.23;;;18.60;99.90;;;;;;5035066;28;20527;-68
2021/07/09 05:17:14;;;;;;;27.57;14.50;;;18.60;99.90;;;;;;5029925;28;21001;-68
2021/07/09 05:19:41;;;;;;;19.40;13.53;;;18.60;99.90;;;;;;5018869;28;20475;-66
2021/07/09 05:22:10;;;;;;;19.60;15.00;;;18.50;99.90;;;;;;5029009;28;20934;-68
2021/07/09 05:24:37;;;;;;;26.40;15.20;;;18.50;99.90;;;;;;5033551;28;20578;-68
2021/07/09 05:27:04;;;;;;;27.40;14.67;;;18.60;99.90;;;;;;5042316;28;20985;-68
2021/07/09 05:29:32;;;;;;;24.83;15.97;;;18.70;99.90;;;;;;5038531;28;21035;-68
2021/07/09 05:31:59;;;;;;;19.03;12.10;;;18.80;99.90;;;;;;5037934;28;20578;-67
2021/07/09 05:34:27;;;;;;;24.13;17.50;;;18.80;99.90;;;;;;5035812;28;20605;-67
2021/07/09 05:36:54;;;;;;;22.70;14.00;;;18.90;99.90;;;;;;5032720;28;20448;-68
2021/07/09 05:39:21;;;;;;;19.93;13.90;;;19.00;99.90;;;;;;5039197;28;20925;-68
2021/07/09 05:41:48;;;;;;;22.07;13.70;;;18.80;99.90;;;;;;5036947;28;20570;-68
2021/07/09 05:44:15;;;;;;;18.07;14.50;;;18.90;99.90;;;;;;5034183;28;20479;-68
2021/07/09 05:46:42;;;;;;;24.17;14.80;;;19.20;99.90;;;;;;5034731;28;20883;-68
2021/07/09 05:52:32;;;;;;;23.97;14.70;;;19.20;99.90;;;;;;5034882;28;20463;-68
2021/07/09 05:54:59;;;;;;;21.30;15.70;;;19.20;99.90;;;;;;5043632;28;21254;-68
2021/07/09 05:57:26;;;;;;;24.70;13.27;;;19.20;99.90;;;;;;5038957;28;20548;-68
2021/07/09 05:59:53;;;;;;;22.57;15.23;;;19.20;99.90;;;;;;5040871;28;20491;-68
2021/07/09 06:02:20;;;;;;;19.97;14.07;;;19.10;99.90;;;;;;5046235;28;20512;-67
2021/07/09 06:04:47;;;;;;;15.93;12.60;;;19.10;99.90;;;;;;5042488;28;20617;-67
2021/07/09 06:07:13;;;;;;;23.37;15.33;;;19.20;99.90;;;;;;5044867;28;20585;-67
2021/07/09 06:09:42;;;;;;;22.20;14.63;;;19.40;99.90;;;;;;5038731;28;20959;-68
2021/07/09 06:12:09;;;;;;;22.13;14.27;;;19.30;99.90;;;;;;5045995;28;20499;-68
2021/07/09 06:14:36;;;;;;;19.63;13.50;;;19.50;99.90;;;;;;5042301;28;20536;-68
2021/07/09 06:17:04;;;;;;;20.80;13.27;;;19.50;99.90;;;;;;5039398;28;21014;-67
2021/07/09 06:19:31;;;;;;;23.60;14.00;;;19.60;99.90;;;;;;5042235;28;20455;-68
2021/07/09 06:21:58;;;;;;;16.20;11.73;;;19.60;99.90;;;;;;5040383;28;20475;-68
2021/07/09 06:24:25;;;;;;;22.03;14.47;;;19.60;99.90;;;;;;5042792;28;20471;-68
2021/07/09 06:26:53;;;;;;;14.60;11.77;;;19.70;99.90;;;;;;5038623;28;20919;-67
2021/07/09 06:29:20;;;;;;;17.27;12.47;;;19.80;99.90;;;;;;5036850;28;20496;-67
2021/07/09 06:31:47;;;;;;;28.17;12.77;;;19.80;99.90;;;;;;5038050;28;20511;-67
2021/07/09 06:34:14;;;;;;;18.43;11.97;;;19.80;99.90;;;;;;5030070;28;20558;-68
2021/07/09 06:36:41;;;;;;;19.10;13.93;;;20.00;99.90;;;;;;5040347;28;20479;-68
2021/07/09 06:39:07;;;;;;;20.40;13.03;;;20.00;99.90;;;;;;5033947;28;20980;-68
2021/07/09 06:41:34;;;;;;;19.40;12.07;;;19.90;99.90;;;;;;5029071;28;20565;-68
2021/07/09 06:44:03;;;;;;;18.40;12.57;;;19.90;99.90;;;;;;5038569;28;20508;-68
2021/07/09 06:46:30;;;;;;;16.43;11.80;;;19.80;99.90;;;;;;5038286;28;20767;-68
2021/07/09 06:48:57;;;;;;;18.03;12.27;;;19.90;99.90;;;;;;5036475;28;20564;-68
2021/07/09 06:51:24;;;;;;;18.87;12.97;;;20.00;99.90;;;;;;5034932;28;20488;-68
2021/07/09 06:53:51;;;;;;;20.70;12.27;;;20.10;99.90;;;;;;5034541;28;20522;-67
2021/07/09 06:56:18;;;;;;;20.83;10.57;;;20.00;99.90;;;;;;5042863;28;20509;-68
2021/07/09 06:58:45;;;;;;;15.83;12.50;;;20.00;99.90;;;;;;5038140;28;20507;-68
2021/07/09 07:01:14;;;;;;;15.13;9.90;;;20.20;99.90;;;;;;5030821;28;20487;-66
2021/07/09 07:03:41;;;;;;;18.87;11.53;;;20.10;99.90;;;;;;5038571;28;20926;-68
2021/07/09 07:06:10;;;;;;;17.27;11.67;;;20.10;99.90;;;;;;5037697;28;20932;-67
2021/07/09 07:08:37;;;;;;;16.60;10.53;;;20.10;99.90;;;;;;5028072;28;20543;-66
2021/07/09 07:11:04;;;;;;;19.33;11.47;;;20.10;99.90;;;;;;5039694;28;20589;-68
2021/07/09 07:13:31;;;;;;;16.27;11.40;;;19.90;99.90;;;;;;5044518;28;20585;-67
2021/07/09 07:15:58;;;;;;;14.13;10.10;;;19.90;99.90;;;;;;5043727;28;20575;-68
2021/07/09 07:18:27;;;;;;;17.87;10.80;;;19.90;99.90;;;;;;5045372;28;20472;-68
2021/07/09 07:20:54;;;;;;;13.30;9.53;;;19.80;99.90;;;;;;5047459;28;20472;-68
2021/07/09 07:23:21;;;;;;;15.47;11.00;;;19.80;99.90;;;;;;5039638;28;20462;-67
2021/07/09 07:25:49;;;;;;;16.37;10.17;;;19.80;99.90;;;;;;5039811;28;20550;-67
2021/07/09 07:28:17;;;;;;;20.20;9.97;;;19.90;99.90;;;;;;5032494;28;20574;-68
2021/07/09 07:30:44;;;;;;;13.43;10.40;;;20.00;99.90;;;;;;5037952;28;20496;-67
2021/07/09 07:33:11;;;;;;;12.30;9.37;;;20.00;99.90;;;;;;5032198;28;20544;-67
2021/07/09 07:35:40;;;;;;;20.53;11.63;;;20.10;99.90;;;;;;5034221;28;20491;-68
2021/07/09 07:38:08;;;;;;;13.93;9.30;;;20.40;99.90;;;;;;5028524;28;21167;-68
2021/07/09 07:40:36;;;;;;;13.57;9.20;;;20.60;99.90;;;;;;5037658;28;20834;-67
2021/07/09 07:43:04;;;;;;;21.67;10.80;;;20.70;99.90;;;;;;5037288;28;20464;-67
2021/07/09 07:45:31;;;;;;;12.50;8.47;;;20.60;99.90;;;;;;5031327;28;20460;-68
2021/07/09 07:47:58;;;;;;;12.93;9.33;;;20.50;99.90;;;;;;5042455;28;20475;-68
2021/07/09 07:50:26;;;;;;;15.70;10.47;;;20.60;99.90;;;;;;5036650;28;20472;-68
2021/07/09 07:52:54;;;;;;;13.27;9.30;;;20.60;99.90;;;;;;5034837;28;21024;-68
2021/07/09 07:55:22;;;;;;;14.17;9.77;;;20.30;99.90;;;;;;5036532;28;20554;-66
2021/07/09 07:57:48;;;;;;;16.03;11.53;;;20.30;99.90;;;;;;5039438;28;20481;-67
2021/07/09 08:00:16;;;;;;;17.77;9.83;;;20.10;99.90;;;;;;5036269;28;20558;-68
2021/07/09 08:02:43;;;;;;;14.57;9.57;;;20.30;99.90;;;;;;5030674;28;21022;-66
2021/07/09 08:05:11;;;;;;;14.13;10.13;;;20.40;99.90;;;;;;5034054;28;20534;-68
2021/07/09 08:07:38;;;;;;;17.23;9.87;;;20.70;99.90;;;;;;5030539;28;20511;-66
2021/07/09 08:10:08;;;;;;;14.90;9.03;;;20.80;99.90;;;;;;5037733;28;20492;-69
2021/07/09 08:12:35;;;;;;;14.03;10.20;;;20.70;99.90;;;;;;5038218;28;20634;-66
2021/07/09 08:15:04;;;;;;;12.80;9.10;;;20.70;99.90;;;;;;5037271;28;20626;-66
2021/07/09 08:17:31;;;;;;;20.83;10.20;;;21.00;99.90;;;;;;5035835;28;20980;-68
2021/07/09 08:19:57;;;;;;;12.97;9.17;;;21.10;99.90;;;;;;5033431;28;20510;-67
2021/07/09 08:22:24;;;;;;;14.77;8.77;;;21.30;99.90;;;;;;5035290;28;20563;-68
2021/07/09 08:24:51;;;;;;;12.97;9.20;;;21.30;99.90;;;;;;5037880;28;20554;-68
2021/07/09 08:27:20;;;;;;;15.23;8.93;;;21.40;99.90;;;;;;5035438;28;20483;-68
2021/07/09 08:29:47;;;;;;;16.93;10.00;;;21.30;99.90;;;;;;5037841;28;21070;-67
2021/07/09 08:32:13;;;;;;;14.03;10.40;;;21.60;99.90;;;;;;5037506;28;21017;-68
2021/07/09 08:34:40;;;;;;;14.60;9.93;;;21.70;99.90;;;;;;5035348;28;20505;-69
2021/07/09 08:37:07;;;;;;;19.97;9.97;;;22.00;99.90;;;;;;5034126;28;20526;-68
2021/07/09 08:39:34;;;;;;;12.30;8.40;;;22.60;99.90;;;;;;5030789;28;20543;-68
2021/07/09 08:42:01;;;;;;;15.53;9.37;;;22.70;99.90;;;;;;5034169;28;20562;-68
2021/07/09 08:44:30;;;;;;;9.07;7.70;;;23.10;99.90;;;;;;5036117;28;20948;-69
2021/07/09 08:46:57;;;;;;;12.10;8.20;;;23.70;99.90;;;;;;5029900;28;20974;-68
2021/07/09 08:49:25;;;;;;;16.83;9.43;;;24.00;99.90;;;;;;5032047;28;20502;-68
2021/07/09 08:51:52;;;;;;;11.53;9.40;;;24.00;99.90;;;;;;5033885;28;21078;-68
2021/07/09 08:54:21;;;;;;;16.87;9.77;;;23.60;99.90;;;;;;5033454;28;20491;-68
2021/07/09 08:56:51;;;;;;;13.73;9.07;;;23.50;99.90;;;;;;5035469;28;20704;-67
2021/07/09 08:59:20;;;;;;;13.37;9.80;;;23.80;99.90;;;;;;5036521;28;20867;-68
2021/07/09 09:01:55;;;;;;;13.70;10.27;;;24.00;99.90;;;;;;5040873;28;20502;-69
2021/07/09 09:04:25;;;;;;;11.63;9.17;;;24.10;99.90;;;;;;5038305;28;20456;-69
2021/07/09 09:07:04;;;;;;;15.60;10.50;;;23.90;99.90;;;;;;5038371;28;20456;-68
2021/07/09 09:09:32;;;;;;;11.77;9.27;;;24.00;99.90;;;;;;5037847;28;20618;-69
2021/07/09 09:12:08;;;;;;;12.80;9.87;;;24.80;99.90;;;;;;5041049;28;21190;-68
2021/07/09 09:14:36;;;;;;;14.23;10.03;;;25.10;99.90;;;;;;5042971;28;20454;-68
2021/07/09 09:17:24;;;;;;;14.10;8.63;;;25.00;99.90;;;;;;5037301;28;20563;-69
2021/07/09 09:20:11;;;;;;;13.20;9.87;;;25.70;99.90;;;;;;5039940;28;20924;-70
2021/07/09 09:22:39;;;;;;;12.50;8.90;;;26.30;99.90;;;;;;5033845;28;20482;-68
2021/07/09 09:25:07;;;;;;;8.37;6.90;;;26.90;99.90;;;;;;5034358;28;20963;-70
2021/07/09 09:27:34;;;;;;;10.57;7.97;;;27.50;99.90;;;;;;5039519;28;20483;-69
2021/07/09 09:30:09;;;;;;;11.10;8.40;;;27.80;99.90;;;;;;5036169;28;20479;-69
2021/07/09 09:32:46;;;;;;;10.07;6.87;;;27.30;99.90;;;;;;5041931;28;20864;-69
2021/07/09 09:35:20;;;;;;;8.37;7.40;;;27.00;99.90;;;;;;5036322;28;20452;-68
2021/07/09 09:37:52;;;;;;;8.07;6.07;;;26.90;99.90;;;;;;5041826;28;20489;-69
2021/07/09 09:40:20;;;;;;;10.40;7.40;;;27.30;99.90;;;;;;5046870;28;20451;-69
2021/07/09 09:42:47;;;;;;;9.67;6.93;;;27.80;99.90;;;;;;5038425;28;20925;-68
2021/07/09 09:45:14;;;;;;;9.27;8.27;;;28.30;99.90;;;;;;5034939;28;20531;-69
2021/07/09 09:47:43;;;;;;;8.10;7.30;;;28.30;99.90;;;;;;5039793;28;22096;-69
2021/07/09 09:50:15;;;;;;;8.83;6.73;;;28.10;99.90;;;;;;5040577;28;20940;-69
2021/07/09 09:52:44;;;;;;;6.83;6.13;;;28.70;99.90;;;;;;5036805;28;20519;-69
2021/07/09 09:55:13;;;;;;;8.00;6.97;;;29.40;99.90;;;;;;5036161;28;20545;-69
2021/07/09 09:57:41;;;;;;;10.27;7.07;;;29.70;99.90;;;;;;5038330;28;20459;-69
2021/07/09 10:00:10;;;;;;;10.60;6.40;;;29.70;99.90;;;;;;5034707;28;20528;-67
2021/07/09 10:02:37;;;;;;;7.20;5.67;;;29.90;99.90;;;;;;5039851;28;20606;-69
2021/07/09 10:05:06;;;;;;;9.10;6.90;;;30.00;99.90;;;;;;5039021;28;20494;-69
2021/07/09 10:07:36;;;;;;;6.30;5.70;;;28.90;99.90;;;;;;5039432;28;20456;-67
2021/07/09 10:10:04;;;;;;;9.30;6.57;;;28.60;99.90;;;;;;5039911;28;20487;-69
2021/07/09 10:12:33;;;;;;;6.57;5.87;;;29.30;99.90;;;;;;5039907;28;20508;-69
2021/07/09 10:15:03;;;;;;;8.10;7.23;;;29.40;99.90;;;;;;5041612;28;20478;-69
2021/07/09 10:17:30;;;;;;;9.83;7.27;;;28.70;99.90;;;;;;5037760;28;20968;-69
2021/07/09 10:20:00;;;;;;;8.30;6.20;;;28.10;99.90;;;;;;5047078;28;20474;-69
2021/07/09 10:22:28;;;;;;;13.00;7.40;;;29.10;99.90;;;;;;5043048;28;20511;-69
2021/07/09 10:24:56;;;;;;;7.90;7.10;;;29.60;99.90;;;;;;5046845;28;20487;-69
2021/07/09 10:27:25;;;;;;;9.10;7.70;;;29.90;99.90;;;;;;5042718;28;20521;-70
2021/07/09 10:29:54;;;;;;;8.43;7.20;;;29.60;99.90;;;;;;5043504;28;20559;-69
2021/07/09 10:32:35;;;;;;;8.63;7.00;;;28.80;99.90;;;;;;5048174;28;20906;-68
2021/07/09 10:35:03;;;;;;;8.53;6.97;;;28.90;99.90;;;;;;5042655;28;20443;-69
2021/07/09 10:37:31;;;;;;;6.87;6.27;;;29.40;99.90;;;;;;5033110;28;20545;-70
2021/07/09 10:40:08;;;;;;;7.10;6.50;;;29.70;99.90;;;;;;5040108;28;20479;-70
2021/07/09 10:42:40;;;;;;;8.70;6.73;;;29.60;99.90;;;;;;5038469;28;20567;-69
2021/07/09 10:45:15;;;;;;;8.40;7.20;;;28.90;99.90;;;;;;5049341;28;20443;-70
2021/07/09 10:47:45;;;;;;;6.90;6.17;;;28.60;99.90;;;;;;5042238;28;20470;-69
2021/07/09 10:50:13;;;;;;;5.50;4.67;;;28.60;99.90;;;;;;5041488;28;20693;-69
2021/07/09 10:52:53;;;;;;;5.30;4.80;;;28.00;99.90;;;;;;5039078;28;20662;-69
2021/07/09 10:55:40;;;;;;;4.90;4.40;;;27.40;99.90;;;;;;5043399;28;20458;-69
2021/07/09 10:58:40;;;;;;;5.40;4.90;;;26.90;99.90;;;;;;5046996;28;20470;-68
2021/07/09 11:01:18;;;;;;;6.63;3.53;;;26.60;99.90;;;;;;5047106;28;20475;-69
2021/07/09 11:03:48;;;;;;;6.53;2.50;;;26.90;99.90;;;;;;5039685;28;20455;-67
2021/07/09 11:06:17;;;;;;;3.03;2.83;;;27.60;99.90;;;;;;5046803;28;20975;-69
2021/07/09 11:08:53;;;;;;;6.20;3.33;;;27.70;99.90;;;;;;5042671;28;20508;-69
2021/07/09 11:11:35;;;;;;;4.93;2.40;;;28.30;99.90;;;;;;5042040;28;20480;-68
2021/07/09 11:14:03;;;;;;;2.90;2.60;;;29.40;99.90;;;;;;5036600;28;20494;-69
2021/07/09 11:16:32;;;;;;;3.00;2.20;;;30.40;99.90;;;;;;5028704;28;20460;-69
2021/07/09 11:19:07;;;;;;;7.00;2.37;;;31.10;99.90;;;;;;5036426;28;20448;-69
2021/07/09 11:21:55;;;;;;;4.03;2.43;;;31.70;97.10;;;;;;5036790;28;20490;-70
2021/07/09 11:24:25;;;;;;;4.93;2.80;;;31.90;97.90;;;;;;5034335;28;20546;-69
2021/07/09 11:26:53;;;;;;;3.10;2.10;;;31.50;97.10;;;;;;5035308;28;20533;-69
2021/07/09 11:29:27;;;;;;;3.60;2.80;;;31.80;94.40;;;;;;5038572;28;20472;-69
2021/07/09 11:31:56;;;;;;;3.10;2.57;;;31.10;94.60;;;;;;5031652;28;20487;-68
2021/07/09 11:34:25;;;;;;;3.60;2.60;;;29.70;95.60;;;;;;5030319;28;20539;-68
2021/07/09 11:36:54;;;;;;;4.53;3.07;;;29.50;98.10;;;;;;5033420;28;21033;-69
2021/07/09 11:39:24;;;;;;;4.07;2.63;;;29.90;95.90;;;;;;5033866;28;20851;-69
2021/07/09 11:41:54;;;;;;;2.47;2.27;;;30.30;96.60;;;;;;5038831;28;20561;-69
2021/07/09 11:44:23;;;;;;;3.20;2.60;;;29.70;96.10;;;;;;5037716;28;20495;-69
2021/07/09 11:46:51;;;;;;;2.73;2.20;;;29.10;97.20;;;;;;5041229;28;20542;-69
2021/07/09 11:49:23;;;;;;;3.30;3.00;;;28.30;98.20;;;;;;5037813;28;20586;-68
2021/07/09 11:51:51;;;;;;;3.60;2.10;;;28.00;99.00;;;;;;5040866;28;20879;-71
2021/07/09 11:54:25;;;;;;;3.07;2.60;;;27.80;99.90;;;;;;5040710;28;20975;-69
2021/07/09 11:56:57;;;;;;;5.23;3.00;;;28.80;99.90;;;;;;5036161;28;20458;-69
2021/07/09 11:59:24;;;;;;;3.33;2.53;;;28.90;99.20;;;;;;5034314;28;20535;-69
2021/07/09 12:02:13;;;;;;;5.10;2.53;;;29.70;98.80;;;;;;5024036;28;20571;-69
2021/07/09 12:04:42;;;;;;;3.13;2.53;;;31.00;96.90;;;;;;5035517;28;20552;-69
2021/07/09 12:07:29;;;;;;;3.70;3.10;;;31.60;96.80;;;;;;5033112;28;20474;-69
2021/07/09 12:10:00;;;;;;;3.70;3.00;;;31.40;95.00;;;;;;5034517;28;20469;-68
2021/07/09 12:12:29;;;;;;;4.00;2.70;;;30.60;96.80;;;;;;5036185;28;20588;-69
2021/07/09 12:14:59;;;;;;;3.23;2.70;;;30.50;95.90;;;;;;5037552;28;20547;-69
2021/07/09 12:17:28;;;;;;;4.60;4.20;;;29.80;96.00;;;;;;5036413;28;20563;-69
2021/07/09 12:20:11;;;;;;;5.20;4.70;;;28.90;98.80;;;;;;5035907;28;20527;-69
2021/07/09 12:22:40;;;;;;;4.50;3.50;;;27.70;99.90;;;;;;5032127;28;20472;-69
2021/07/09 12:25:12;;;;;;;4.57;2.70;;;27.50;99.90;;;;;;5035462;28;21062;-68
2021/07/09 12:27:40;;;;;;;4.23;3.03;;;26.90;99.90;;;;;;5040463;28;20445;-68
2021/07/09 12:30:13;;;;;;;6.07;2.67;;;26.70;99.90;;;;;;5038692;28;21064;-68
2021/07/09 12:32:54;;;;;;;8.13;3.30;;;26.70;99.90;;;;;;5034474;28;20602;-68
2021/07/09 12:35:22;;;;;;;5.67;2.87;;;27.30;99.90;;;;;;5041467;28;20484;-68
2021/07/09 12:38:04;;;;;;;2.87;2.40;;;27.60;99.90;;;;;;5038152;28;20530;-68
2021/07/09 12:40:35;;;;;;;6.63;3.43;;;28.00;99.90;;;;;;5041615;28;20501;-69
2021/07/09 12:43:13;;;;;;;4.70;2.70;;;28.20;99.90;;;;;;5038380;28;20452;-68
2021/07/09 12:45:40;;;;;;;2.77;2.57;;;28.40;99.90;;;;;;5039289;28;20467;-68
2021/07/09 12:48:08;;;;;;;4.33;2.77;;;27.80;99.90;;;;;;5037385;28;20451;-68
2021/07/09 12:50:39;;;;;;;3.30;3.00;;;27.80;99.90;;;;;;5037414;28;20582;-68
2021/07/09 12:53:19;;;;;;;3.20;2.90;;;28.50;99.50;;;;;;5040561;28;20455;-68
2021/07/09 12:55:49;;;;;;;3.00;2.13;;;28.80;98.50;;;;;;5044676;28;21270;-68
2021/07/09 13:12:16;;;;;;;3.67;2.83;;;27.10;99.90;;;;;;5036408;28;20489;-69
2021/07/09 13:14:54;;;;;;;3.30;2.77;;;27.30;99.90;;;;;;5022922;28;20507;-68
2021/07/09 13:17:23;;;;;;;3.00;2.80;;;27.40;99.10;;;;;;5032959;28;20680;-68
2021/07/09 13:20:01;;;;;;;4.43;2.47;;;28.00;98.20;;;;;;5029184;28;21007;-68
2021/07/09 13:22:33;;;;;;;2.80;2.60;;;28.10;99.90;;;;;;5027090;28;20491;-68
2021/07/09 13:25:15;;;;;;;3.70;3.07;;;29.00;99.00;;;;;;5035085;28;20573;-68
2021/07/09 13:27:44;;;;;;;3.87;2.83;;;28.70;99.60;;;;;;5035315;28;20552;-67
2021/07/09 13:30:12;;;;;;;2.63;2.43;;;28.40;99.60;;;;;;5029220;28;20483;-67
2021/07/09 13:32:40;;;;;;;3.27;2.80;;;27.90;99.90;;;;;;5025538;28;20568;-67
2021/07/09 13:35:12;;;;;;;4.00;3.57;;;27.40;99.90;;;;;;5029543;28;21077;-68
2021/07/09 13:37:39;;;;;;;3.23;2.70;;;26.70;99.90;;;;;;5025690;28;21096;-67
2021/07/09 13:40:08;;;;;;;3.63;3.07;;;26.80;99.90;;;;;;5026493;28;21051;-67
2021/07/09 13:42:37;;;;;;;4.00;2.63;;;27.00;99.90;;;;;;5022693;28;20923;-68
2021/07/09 13:45:09;;;;;;;3.20;2.57;;;26.80;99.90;;;;;;5034778;28;20502;-68
2021/07/09 13:47:37;;;;;;;3.80;2.70;;;26.70;99.90;;;;;;5033957;28;21111;-67
2021/07/09 13:50:04;;;;;;;3.20;2.90;;;26.60;99.90;;;;;;5033514;28;20522;-67
2021/07/09 13:52:31;;;;;;;4.63;3.07;;;26.40;99.90;;;;;;5030595;28;20538;-68
2021/07/09 13:54:59;;;;;;;3.90;3.43;;;26.50;99.90;;;;;;5035515;28;20559;-68
2021/07/09 13:57:26;;;;;;;4.47;3.57;;;26.50;99.90;;;;;;5038512;28;20519;-68
2021/07/09 13:59:53;;;;;;;6.33;3.50;;;26.50;99.90;;;;;;5035601;28;22080;-67
2021/07/09 14:02:21;;;;;;;4.37;3.03;;;26.60;99.90;;;;;;5034169;28;20477;-67
2021/07/09 14:04:49;;;;;;;3.60;3.10;;;26.30;99.90;;;;;;5034781;28;20571;-68
2021/07/09 14:07:16;;;;;;;3.53;2.90;;;26.50;99.90;;;;;;5033614;28;20484;-67
2021/07/09 14:09:43;;;;;;;2.67;2.10;;;26.40;99.90;;;;;;5032962;28;20967;-68
2021/07/09 14:12:10;;;;;;;3.60;3.30;;;26.60;99.90;;;;;;5034888;28;20574;-67
2021/07/09 14:14:38;;;;;;;4.77;3.10;;;26.70;99.90;;;;;;5032515;28;20586;-68
2021/07/09 14:17:05;;;;;;;3.37;2.67;;;26.70;99.90;;;;;;5037123;28;20897;-67
2021/07/09 14:19:35;;;;;;;7.90;3.37;;;26.70;99.90;;;;;;5036766;28;20954;-66
2021/07/09 14:22:02;;;;;;;5.80;3.50;;;26.40;99.90;;;;;;5031056;28;20475;-68
2021/07/09 14:24:29;;;;;;;5.20;4.27;;;26.10;99.90;;;;;;5034319;28;20519;-66
2021/07/09 14:26:56;;;;;;;5.07;3.40;;;26.00;99.90;;;;;;5033599;28;20472;-68
2021/07/09 14:29:23;;;;;;;3.40;3.10;;;26.10;99.90;;;;;;5036145;28;20520;-68
2021/07/09 14:31:50;;;;;;;4.13;2.83;;;26.10;99.90;;;;;;5044073;28;20523;-68
2021/07/09 14:34:19;;;;;;;3.93;3.53;;;25.90;99.90;;;;;;5040481;28;20507;-68
2021/07/09 14:36:47;;;;;;;4.80;3.20;;;25.80;99.90;;;;;;5034915;28;20487;-68
2021/07/09 14:39:14;;;;;;;4.10;3.70;;;25.60;99.90;;;;;;5038564;28;20495;-68